sensor_id;sensor_type;location;lat;lon;timestamp;temperature;humidity
47090;DHT22;32840;52.516;13.294;2023-03-01T00:02:28;2.00;99.90
47090;DHT22;32840;52.516;13.294;2023-03-01T00:05:13;2.00;99.90
47090;DHT22;32840;52.516;13.294;2023-03-01T00:07:58;2.00;99.90
47090;DHT22;32840;52.516;13.294;2023-03-01T00:10:43;1.90;99.90
47090;DHT22;32840;52.516;13.294;2023-03-01T00:13:28;1.90;99.90
47090;DHT22;32840;52.516;13.294;2023-03-01T00:16:23;1.90;99.90
47090;DHT22;32840;52.516;13.294;2023-03-01T00:19:11;1.90;99.90
47090;DHT22;32840;52.516;13.294;2023-03-01T00:21:56;1.80;99.90
47090;DHT22;32840;52.516;13.294;2023-03-01T00:24:40;1.80;99.90
47090;DHT22;32840;52.516;13.294;2023-03-01T00:27:25;1.80;99.90
47090;DHT22;32840;52.516;13.294;2023-03-01T00:30:11;1.80;99.90
47090;DHT22;32840;52.516;13.294;2023-03-01T00:32:55;1.80;99.90
47090;DHT22;32840;52.516;13.294;2023-03-01T00:35:40;1.80;99.90
47090;DHT22;32840;52.516;13.294;2023-03-01T00:38:25;1.80;99.90
47090;DHT22;32840;52.516;13.294;2023-03-01T00:41:13;1.70;99.90
47090;DHT22;32840;52.516;13.294;2023-03-01T00:43:58;1.70;99.90
47090;DHT22;32840;52.516;13.294;2023-03-01T00:46:43;1.60;99.90
47090;DHT22;32840;52.516;13.294;2023-03-01T00:49:28;1.60;99.90
47090;DHT22;32840;52.516;13.294;2023-03-01T00:52:13;1.60;99.90
47090;DHT22;32840;52.516;13.294;2023-03-01T00:54:58;1.50;99.90
47090;DHT22;32840;52.516;13.294;2023-03-01T00:57:43;1.50;99.90
47090;DHT22;32840;52.516;13.294;2023-03-01T01:00:28;1.40;99.90
47090;DHT22;32840;52.516;13.294;2023-03-01T01:03:13;1.40;99.90
47090;DHT22;32840;52.516;13.294;2023-03-01T01:05:58;1.40;99.90
47090;DHT22;32840;52.516;13.294;2023-03-01T01:08:43;1.30;99.90
47090;DHT22;32840;52.516;13.294;2023-03-01T01:11:29;1.30;99.90
47090;DHT22;32840;52.516;13.294;2023-03-01T01:14:14;1.20;99.90
47090;DHT22;32840;52.516;13.294;2023-03-01T01:16:59;1.30;99.90
47090;DHT22;32840;52.516;13.294;2023-03-01T01:19:44;1.20;99.90
47090;DHT22;32840;52.516;13.294;2023-03-01T01:22:29;1.20;99.90
47090;DHT22;32840;52.516;13.294;2023-03-01T01:25:14;1.20;99.90
47090;DHT22;32840;52.516;13.294;2023-03-01T01:27:59;1.20;99.90
47090;DHT22;32840;52.516;13.294;2023-03-01T01:30:44;1.20;99.90
47090;DHT22;32840;52.516;13.294;2023-03-01T01:33:28;1.20;99.90
47090;DHT22;32840;52.516;13.294;2023-03-01T01:36:13;1.20;99.90
47090;DHT22;32840;52.516;13.294;2023-03-01T01:38:59;1.30;99.90
47090;DHT22;32840;52.516;13.294;2023-03-01T01:41:45;1.30;99.90
47090;DHT22;32840;52.516;13.294;2023-03-01T01:44:33;1.20;99.90
47090;DHT22;32840;52.516;13.294;2023-03-01T01:47:20;1.20;99.90
47090;DHT22;32840;52.516;13.294;2023-03-01T01:50:15;1.10;99.90
47090;DHT22;32840;52.516;13.294;2023-03-01T01:53:02;1.10;99.90
47090;DHT22;32840;52.516;13.294;2023-03-01T01:55:51;1.10;99.90
47090;DHT22;32840;52.516;13.294;2023-03-01T01:58:37;1.00;99.90
47090;DHT22;32840;52.516;13.294;2023-03-01T02:01:22;1.00;99.90
47090;DHT22;32840;52.516;13.294;2023-03-01T02:04:07;1.10;99.90
47090;DHT22;32840;52.516;13.294;2023-03-01T02:07:07;1.10;99.90
47090;DHT22;32840;52.516;13.294;2023-03-01T02:09:53;1.10;99.90
47090;DHT22;32840;52.516;13.294;2023-03-01T02:12:38;1.00;99.90
47090;DHT22;32840;52.516;13.294;2023-03-01T02:15:24;1.10;99.90
47090;DHT22;32840;52.516;13.294;2023-03-01T02:18:10;1.10;99.90
47090;DHT22;32840;52.516;13.294;2023-03-01T02:23:50;1.40;99.90
47090;DHT22;32840;52.516;13.294;2023-03-01T02:26:42;1.60;99.90
47090;DHT22;32840;52.516;13.294;2023-03-01T02:29:29;1.60;99.90
47090;DHT22;32840;52.516;13.294;2023-03-01T02:32:14;1.40;99.90
47090;DHT22;32840;52.516;13.294;2023-03-01T02:35:00;1.30;99.90
47090;DHT22;32840;52.516;13.294;2023-03-01T02:37:45;1.30;99.90
47090;DHT22;32840;52.516;13.294;2023-03-01T02:40:30;1.20;99.90
47090;DHT22;32840;52.516;13.294;2023-03-01T02:43:19;1.20;99.90
47090;DHT22;32840;52.516;13.294;2023-03-01T02:46:14;1.20;99.90
47090;DHT22;32840;52.516;13.294;2023-03-01T02:48:59;1.20;99.90
47090;DHT22;32840;52.516;13.294;2023-03-01T02:55:11;1.20;99.90
47090;DHT22;32840;52.516;13.294;2023-03-01T02:57:57;1.20;99.90
47090;DHT22;32840;52.516;13.294;2023-03-01T03:00:45;1.10;99.90
47090;DHT22;32840;52.516;13.294;2023-03-01T03:03:31;1.20;99.90
47090;DHT22;32840;52.516;13.294;2023-03-01T03:06:16;1.20;99.90
47090;DHT22;32840;52.516;13.294;2023-03-01T03:09:01;1.10;99.90
47090;DHT22;32840;52.516;13.294;2023-03-01T03:11:46;1.20;99.90
47090;DHT22;32840;52.516;13.294;2023-03-01T03:14:31;1.20;99.90
47090;DHT22;32840;52.516;13.294;2023-03-01T03:17:19;1.20;99.90
47090;DHT22;32840;52.516;13.294;2023-03-01T03:20:05;1.10;99.90
47090;DHT22;32840;52.516;13.294;2023-03-01T03:22:53;1.10;99.90
47090;DHT22;32840;52.516;13.294;2023-03-01T03:25:38;1.20;99.90
47090;DHT22;32840;52.516;13.294;2023-03-01T03:28:23;1.20;99.90
47090;DHT22;32840;52.516;13.294;2023-03-01T03:31:08;1.10;99.90
47090;DHT22;32840;52.516;13.294;2023-03-01T03:33:53;1.10;99.90
47090;DHT22;32840;52.516;13.294;2023-03-01T03:36:38;1.10;99.90
47090;DHT22;32840;52.516;13.294;2023-03-01T03:39:23;1.00;99.90
47090;DHT22;32840;52.516;13.294;2023-03-01T03:42:08;1.00;99.90
47090;DHT22;32840;52.516;13.294;2023-03-01T03:44:54;1.00;99.90
47090;DHT22;32840;52.516;13.294;2023-03-01T03:47:39;1.00;99.90
47090;DHT22;32840;52.516;13.294;2023-03-01T03:50:24;0.90;99.90
47090;DHT22;32840;52.516;13.294;2023-03-01T03:53:11;0.90;99.90
47090;DHT22;32840;52.516;13.294;2023-03-01T03:55:56;0.90;99.90
47090;DHT22;32840;52.516;13.294;2023-03-01T03:58:42;0.90;99.90
47090;DHT22;32840;52.516;13.294;2023-03-01T04:01:27;0.90;99.90
47090;DHT22;32840;52.516;13.294;2023-03-01T04:04:12;0.90;99.90
47090;DHT22;32840;52.516;13.294;2023-03-01T04:06:57;0.80;99.90
47090;DHT22;32840;52.516;13.294;2023-03-01T04:09:43;0.80;99.90
47090;DHT22;32840;52.516;13.294;2023-03-01T04:12:28;0.80;99.90
47090;DHT22;32840;52.516;13.294;2023-03-01T04:15:12;0.80;99.90
47090;DHT22;32840;52.516;13.294;2023-03-01T04:17:57;0.70;99.90
47090;DHT22;32840;52.516;13.294;2023-03-01T04:20:44;0.70;99.90
47090;DHT22;32840;52.516;13.294;2023-03-01T04:23:29;0.70;99.90
47090;DHT22;32840;52.516;13.294;2023-03-01T04:26:14;0.70;99.90
47090;DHT22;32840;52.516;13.294;2023-03-01T04:28:59;0.70;99.90
47090;DHT22;32840;52.516;13.294;2023-03-01T04:31:44;0.70;99.90
47090;DHT22;32840;52.516;13.294;2023-03-01T04:34:29;0.70;99.90
47090;DHT22;32840;52.516;13.294;2023-03-01T04:37:14;0.70;99.90
47090;DHT22;32840;52.516;13.294;2023-03-01T04:40:02;0.60;99.90
47090;DHT22;32840;52.516;13.294;2023-03-01T04:42:56;0.50;99.90
47090;DHT22;32840;52.516;13.294;2023-03-01T04:45:41;0.50;99.90
47090;DHT22;32840;52.516;13.294;2023-03-01T04:48:26;0.50;99.90
47090;DHT22;32840;52.516;13.294;2023-03-01T04:51:11;0.60;99.90
47090;DHT22;32840;52.516;13.294;2023-03-01T04:53:57;0.60;99.90
47090;DHT22;32840;52.516;13.294;2023-03-01T04:56:42;0.60;99.90
47090;DHT22;32840;52.516;13.294;2023-03-01T04:59:28;0.60;99.90
47090;DHT22;32840;52.516;13.294;2023-03-01T05:02:13;0.50;99.90
47090;DHT22;32840;52.516;13.294;2023-03-01T05:04:58;0.60;99.90
47090;DHT22;32840;52.516;13.294;2023-03-01T05:07:42;0.50;99.90
47090;DHT22;32840;52.516;13.294;2023-03-01T05:10:28;0.50;99.90
47090;DHT22;32840;52.516;13.294;2023-03-01T05:13:14;0.50;99.90
47090;DHT22;32840;52.516;13.294;2023-03-01T05:16:05;0.50;99.90
47090;DHT22;32840;52.516;13.294;2023-03-01T05:18:50;0.50;99.90
47090;DHT22;32840;52.516;13.294;2023-03-01T05:21:35;0.50;99.90
47090;DHT22;32840;52.516;13.294;2023-03-01T05:24:39;0.40;99.90
47090;DHT22;32840;52.516;13.294;2023-03-01T05:27:24;0.40;99.90
47090;DHT22;32840;52.516;13.294;2023-03-01T05:30:09;0.40;99.90
47090;DHT22;32840;52.516;13.294;2023-03-01T05:33:01;0.40;99.90
47090;DHT22;32840;52.516;13.294;2023-03-01T05:35:46;0.30;99.90
47090;DHT22;32840;52.516;13.294;2023-03-01T05:38:33;0.30;99.90
47090;DHT22;32840;52.516;13.294;2023-03-01T05:41:18;0.30;99.90
47090;DHT22;32840;52.516;13.294;2023-03-01T05:44:03;0.30;99.90
47090;DHT22;32840;52.516;13.294;2023-03-01T05:46:49;0.30;99.90
47090;DHT22;32840;52.516;13.294;2023-03-01T05:49:34;0.30;99.90
47090;DHT22;32840;52.516;13.294;2023-03-01T05:52:19;0.30;99.90
47090;DHT22;32840;52.516;13.294;2023-03-01T05:55:03;0.30;99.90
47090;DHT22;32840;52.516;13.294;2023-03-01T05:57:49;0.30;99.90
47090;DHT22;32840;52.516;13.294;2023-03-01T06:00:34;0.30;99.90
47090;DHT22;32840;52.516;13.294;2023-03-01T06:03:19;0.30;99.90
47090;DHT22;32840;52.516;13.294;2023-03-01T06:06:04;0.30;99.90
47090;DHT22;32840;52.516;13.294;2023-03-01T06:08:49;0.30;99.90
47090;DHT22;32840;52.516;13.294;2023-03-01T06:11:35;0.30;99.90
47090;DHT22;32840;52.516;13.294;2023-03-01T06:14:20;0.30;99.90
47090;DHT22;32840;52.516;13.294;2023-03-01T06:17:05;0.50;99.90
47090;DHT22;32840;52.516;13.294;2023-03-01T06:19:50;0.60;99.90
47090;DHT22;32840;52.516;13.294;2023-03-01T06:22:35;0.50;99.90
47090;DHT22;32840;52.516;13.294;2023-03-01T06:25:22;0.50;99.90
47090;DHT22;32840;52.516;13.294;2023-03-01T06:28:07;0.40;99.90
47090;DHT22;32840;52.516;13.294;2023-03-01T06:30:52;0.30;99.90
47090;DHT22;32840;52.516;13.294;2023-03-01T06:33:36;0.40;99.90
47090;DHT22;32840;52.516;13.294;2023-03-01T06:36:21;0.40;99.90
47090;DHT22;32840;52.516;13.294;2023-03-01T06:39:06;0.40;99.90
47090;DHT22;32840;52.516;13.294;2023-03-01T06:41:51;0.50;99.90
47090;DHT22;32840;52.516;13.294;2023-03-01T06:44:36;0.50;99.90
47090;DHT22;32840;52.516;13.294;2023-03-01T06:47:21;0.50;99.90
47090;DHT22;32840;52.516;13.294;2023-03-01T06:50:06;0.60;99.90
47090;DHT22;32840;52.516;13.294;2023-03-01T06:52:55;0.60;99.90
47090;DHT22;32840;52.516;13.294;2023-03-01T06:55:40;0.60;99.90
47090;DHT22;32840;52.516;13.294;2023-03-01T06:58:26;0.60;99.90
47090;DHT22;32840;52.516;13.294;2023-03-01T07:01:10;0.60;99.90
47090;DHT22;32840;52.516;13.294;2023-03-01T07:03:55;0.60;99.90
47090;DHT22;32840;52.516;13.294;2023-03-01T07:06:40;0.70;99.90
47090;DHT22;32840;52.516;13.294;2023-03-01T07:09:25;0.80;99.90
47090;DHT22;32840;52.516;13.294;2023-03-01T07:12:10;0.80;99.90
47090;DHT22;32840;52.516;13.294;2023-03-01T07:14:55;0.80;99.90
47090;DHT22;32840;52.516;13.294;2023-03-01T07:17:40;0.80;99.90
47090;DHT22;32840;52.516;13.294;2023-03-01T07:20:25;0.90;99.90
47090;DHT22;32840;52.516;13.294;2023-03-01T07:23:10;0.90;99.90
47090;DHT22;32840;52.516;13.294;2023-03-01T07:25:54;0.80;99.90
47090;DHT22;32840;52.516;13.294;2023-03-01T07:28:39;0.90;99.90
47090;DHT22;32840;52.516;13.294;2023-03-01T07:31:24;0.90;99.90
47090;DHT22;32840;52.516;13.294;2023-03-01T07:34:12;1.00;99.90
47090;DHT22;32840;52.516;13.294;2023-03-01T07:36:56;1.00;99.90
47090;DHT22;32840;52.516;13.294;2023-03-01T07:39:42;1.10;99.90
47090;DHT22;32840;52.516;13.294;2023-03-01T07:42:26;1.20;99.90
47090;DHT22;32840;52.516;13.294;2023-03-01T07:45:11;1.20;99.90
47090;DHT22;32840;52.516;13.294;2023-03-01T07:47:57;1.30;99.90
47090;DHT22;32840;52.516;13.294;2023-03-01T07:50:42;1.40;99.90
47090;DHT22;32840;52.516;13.294;2023-03-01T07:53:28;1.50;99.90
47090;DHT22;32840;52.516;13.294;2023-03-01T07:56:13;1.50;99.90
47090;DHT22;32840;52.516;13.294;2023-03-01T07:59:01;1.60;99.90
47090;DHT22;32840;52.516;13.294;2023-03-01T08:01:45;1.70;99.90
47090;DHT22;32840;52.516;13.294;2023-03-01T08:04:31;1.80;99.90
47090;DHT22;32840;52.516;13.294;2023-03-01T08:07:16;1.90;99.90
47090;DHT22;32840;52.516;13.294;2023-03-01T08:10:01;2.00;99.90
47090;DHT22;32840;52.516;13.294;2023-03-01T08:12:46;2.00;99.90
47090;DHT22;32840;52.516;13.294;2023-03-01T08:15:31;2.10;99.90
47090;DHT22;32840;52.516;13.294;2023-03-01T08:18:17;2.20;99.90
47090;DHT22;32840;52.516;13.294;2023-03-01T08:23:48;2.30;99.90
47090;DHT22;32840;52.516;13.294;2023-03-01T08:26:33;2.40;99.90
47090;DHT22;32840;52.516;13.294;2023-03-01T08:29:18;2.50;99.90
47090;DHT22;32840;52.516;13.294;2023-03-01T08:32:03;2.50;99.90
47090;DHT22;32840;52.516;13.294;2023-03-01T08:34:48;2.60;99.90
47090;DHT22;32840;52.516;13.294;2023-03-01T08:37:33;2.70;99.90
47090;DHT22;32840;52.516;13.294;2023-03-01T08:40:18;2.80;99.90
47090;DHT22;32840;52.516;13.294;2023-03-01T08:43:03;3.10;99.90
47090;DHT22;32840;52.516;13.294;2023-03-01T08:45:48;3.30;99.90
47090;DHT22;32840;52.516;13.294;2023-03-01T08:48:33;3.50;99.90
47090;DHT22;32840;52.516;13.294;2023-03-01T08:51:20;3.70;99.90
47090;DHT22;32840;52.516;13.294;2023-03-01T08:54:07;3.90;99.90
47090;DHT22;32840;52.516;13.294;2023-03-01T08:56:52;4.20;99.90
47090;DHT22;32840;52.516;13.294;2023-03-01T08:59:37;4.40;99.90
47090;DHT22;32840;52.516;13.294;2023-03-01T09:02:22;4.50;99.90
47090;DHT22;32840;52.516;13.294;2023-03-01T09:05:07;4.60;99.90
47090;DHT22;32840;52.516;13.294;2023-03-01T09:07:52;4.70;99.90
47090;DHT22;32840;52.516;13.294;2023-03-01T09:10:38;4.80;99.90
47090;DHT22;32840;52.516;13.294;2023-03-01T09:13:23;4.80;99.80
47090;DHT22;32840;52.516;13.294;2023-03-01T09:16:10;5.00;99.20
47090;DHT22;32840;52.516;13.294;2023-03-01T09:18:55;5.20;98.80
47090;DHT22;32840;52.516;13.294;2023-03-01T09:21:41;5.30;97.40
47090;DHT22;32840;52.516;13.294;2023-03-01T09:24:25;5.30;96.80
47090;DHT22;32840;52.516;13.294;2023-03-01T09:27:10;5.30;95.50
47090;DHT22;32840;52.516;13.294;2023-03-01T09:29:57;5.30;95.30
47090;DHT22;32840;52.516;13.294;2023-03-01T09:32:42;5.20;94.60
47090;DHT22;32840;52.516;13.294;2023-03-01T09:35:26;5.30;94.30
47090;DHT22;32840;52.516;13.294;2023-03-01T09:38:13;5.30;94.20
47090;DHT22;32840;52.516;13.294;2023-03-01T09:41:00;5.40;94.30
47090;DHT22;32840;52.516;13.294;2023-03-01T09:43:50;5.50;93.80
47090;DHT22;32840;52.516;13.294;2023-03-01T09:46:42;5.50;92.50
47090;DHT22;32840;52.516;13.294;2023-03-01T09:49:30;5.60;91.80
47090;DHT22;32840;52.516;13.294;2023-03-01T09:55:33;5.70;91.80
47090;DHT22;32840;52.516;13.294;2023-03-01T10:04:40;5.80;90.20
47090;DHT22;32840;52.516;13.294;2023-03-01T10:13:46;6.10;89.60
47090;DHT22;32840;52.516;13.294;2023-03-01T10:17:02;6.20;88.10
47090;DHT22;32840;52.516;13.294;2023-03-01T10:19:47;6.30;86.00
47090;DHT22;32840;52.516;13.294;2023-03-01T10:22:32;6.30;84.40
47090;DHT22;32840;52.516;13.294;2023-03-01T10:28:20;6.30;83.80
47090;DHT22;32840;52.516;13.294;2023-03-01T10:31:16;6.30;80.80
47090;DHT22;32840;52.516;13.294;2023-03-01T10:34:13;6.30;78.40
47090;DHT22;32840;52.516;13.294;2023-03-01T10:37:08;6.30;77.10
47090;DHT22;32840;52.516;13.294;2023-03-01T10:40:02;6.40;77.50
47090;DHT22;32840;52.516;13.294;2023-03-01T10:42:57;6.50;76.80
47090;DHT22;32840;52.516;13.294;2023-03-01T10:45:42;6.50;77.60
47090;DHT22;32840;52.516;13.294;2023-03-01T10:48:27;6.70;77.70
47090;DHT22;32840;52.516;13.294;2023-03-01T10:51:17;6.90;76.80
47090;DHT22;32840;52.516;13.294;2023-03-01T10:54:06;6.90;75.30
47090;DHT22;32840;52.516;13.294;2023-03-01T10:57:04;7.00;74.90
47090;DHT22;32840;52.516;13.294;2023-03-01T11:00:01;7.00;73.30
47090;DHT22;32840;52.516;13.294;2023-03-01T11:03:01;6.90;74.50
47090;DHT22;32840;52.516;13.294;2023-03-01T11:06:03;6.90;74.90
47090;DHT22;32840;52.516;13.294;2023-03-01T11:08:49;7.00;75.20
47090;DHT22;32840;52.516;13.294;2023-03-01T11:11:35;7.00;74.60
47090;DHT22;32840;52.516;13.294;2023-03-01T11:14:26;7.00;74.50
47090;DHT22;32840;52.516;13.294;2023-03-01T11:17:18;7.00;73.60
47090;DHT22;32840;52.516;13.294;2023-03-01T11:23:05;6.90;70.90
47090;DHT22;32840;52.516;13.294;2023-03-01T11:26:07;6.80;71.60
47090;DHT22;32840;52.516;13.294;2023-03-01T11:28:55;6.90;70.50
47090;DHT22;32840;52.516;13.294;2023-03-01T11:31:42;6.90;70.00
47090;DHT22;32840;52.516;13.294;2023-03-01T11:34:42;7.00;70.10
47090;DHT22;32840;52.516;13.294;2023-03-01T11:37:41;6.90;69.20
47090;DHT22;32840;52.516;13.294;2023-03-01T11:40:42;7.00;69.20
47090;DHT22;32840;52.516;13.294;2023-03-01T11:43:57;7.10;67.20
47090;DHT22;32840;52.516;13.294;2023-03-01T11:50:11;7.30;66.20
47090;DHT22;32840;52.516;13.294;2023-03-01T11:53:06;7.30;65.90
47090;DHT22;32840;52.516;13.294;2023-03-01T11:56:28;7.30;64.80
47090;DHT22;32840;52.516;13.294;2023-03-01T11:59:41;7.40;64.70
47090;DHT22;32840;52.516;13.294;2023-03-01T12:02:52;7.50;64.40
47090;DHT22;32840;52.516;13.294;2023-03-01T12:24:33;7.90;61.50
47090;DHT22;32840;52.516;13.294;2023-03-01T12:30:44;8.00;61.10
47090;DHT22;32840;52.516;13.294;2023-03-01T12:39:23;8.10;58.70
47090;DHT22;32840;52.516;13.294;2023-03-01T12:51:34;8.20;58.30
47090;DHT22;32840;52.516;13.294;2023-03-01T12:54:31;8.10;57.90
47090;DHT22;32840;52.516;13.294;2023-03-01T12:57:24;8.10;58.00
47090;DHT22;32840;52.516;13.294;2023-03-01T13:00:22;8.10;57.90
47090;DHT22;32840;52.516;13.294;2023-03-01T13:09:03;8.40;57.40
47090;DHT22;32840;52.516;13.294;2023-03-01T13:11:49;8.50;56.70
47090;DHT22;32840;52.516;13.294;2023-03-01T13:14:35;8.50;57.10
47090;DHT22;32840;52.516;13.294;2023-03-01T13:17:42;8.60;57.00
47090;DHT22;32840;52.516;13.294;2023-03-01T13:20:46;8.60;55.40
47090;DHT22;32840;52.516;13.294;2023-03-01T13:23:40;8.60;51.90
47090;DHT22;32840;52.516;13.294;2023-03-01T13:26:26;8.50;51.70
47090;DHT22;32840;52.516;13.294;2023-03-01T13:29:26;8.50;52.50
47090;DHT22;32840;52.516;13.294;2023-03-01T13:41:50;8.60;50.80
47090;DHT22;32840;52.516;13.294;2023-03-01T13:44:38;8.60;50.80
47090;DHT22;32840;52.516;13.294;2023-03-01T13:47:24;8.60;51.20
47090;DHT22;32840;52.516;13.294;2023-03-01T13:50:18;8.50;51.70
47090;DHT22;32840;52.516;13.294;2023-03-01T13:53:06;8.50;52.00
47090;DHT22;32840;52.516;13.294;2023-03-01T13:56:12;8.50;51.20
47090;DHT22;32840;52.516;13.294;2023-03-01T13:59:20;8.50;51.40
47090;DHT22;32840;52.516;13.294;2023-03-01T14:02:12;8.50;51.10
47090;DHT22;32840;52.516;13.294;2023-03-01T14:04:59;8.50;51.20
47090;DHT22;32840;52.516;13.294;2023-03-01T14:07:51;8.40;51.50
47090;DHT22;32840;52.516;13.294;2023-03-01T14:19:47;8.50;50.90
47090;DHT22;32840;52.516;13.294;2023-03-01T14:22:36;8.60;51.40
47090;DHT22;32840;52.516;13.294;2023-03-01T14:25:32;8.60;51.80
47090;DHT22;32840;52.516;13.294;2023-03-01T14:31:37;8.70;52.50
47090;DHT22;32840;52.516;13.294;2023-03-01T14:34:24;8.70;52.40
47090;DHT22;32840;52.516;13.294;2023-03-01T14:37:35;8.60;52.70
47090;DHT22;32840;52.516;13.294;2023-03-01T14:40:34;8.60;53.10
47090;DHT22;32840;52.516;13.294;2023-03-01T14:43:22;8.60;53.60
47090;DHT22;32840;52.516;13.294;2023-03-01T14:46:33;8.70;54.30
47090;DHT22;32840;52.516;13.294;2023-03-01T14:49:27;8.70;54.40
47090;DHT22;32840;52.516;13.294;2023-03-01T14:52:24;8.60;54.60
47090;DHT22;32840;52.516;13.294;2023-03-01T14:55:22;8.60;54.70
47090;DHT22;32840;52.516;13.294;2023-03-01T14:58:34;8.70;54.40
47090;DHT22;32840;52.516;13.294;2023-03-01T15:01:20;8.70;54.30
47090;DHT22;32840;52.516;13.294;2023-03-01T15:04:06;8.70;54.50
47090;DHT22;32840;52.516;13.294;2023-03-01T15:06:52;8.60;54.60
47090;DHT22;32840;52.516;13.294;2023-03-01T15:09:40;8.60;54.90
47090;DHT22;32840;52.516;13.294;2023-03-01T15:15:33;8.60;55.70
47090;DHT22;32840;52.516;13.294;2023-03-01T15:18:28;8.60;55.90
47090;DHT22;32840;52.516;13.294;2023-03-01T15:21:20;8.60;56.90
47090;DHT22;32840;52.516;13.294;2023-03-01T15:24:33;8.60;56.50
47090;DHT22;32840;52.516;13.294;2023-03-01T15:27:25;8.60;56.30
47090;DHT22;32840;52.516;13.294;2023-03-01T15:30:18;8.60;56.70
47090;DHT22;32840;52.516;13.294;2023-03-01T15:33:27;8.60;56.40
47090;DHT22;32840;52.516;13.294;2023-03-01T15:36:39;8.60;56.90
47090;DHT22;32840;52.516;13.294;2023-03-01T15:39:40;8.60;56.30
47090;DHT22;32840;52.516;13.294;2023-03-01T15:45:27;8.50;56.20
47090;DHT22;32840;52.516;13.294;2023-03-01T15:48:19;8.50;56.40
47090;DHT22;32840;52.516;13.294;2023-03-01T15:51:09;8.50;56.10
47090;DHT22;32840;52.516;13.294;2023-03-01T15:54:06;8.60;57.70
47090;DHT22;32840;52.516;13.294;2023-03-01T15:56:51;8.50;56.20
47090;DHT22;32840;52.516;13.294;2023-03-01T15:59:36;8.50;56.20
47090;DHT22;32840;52.516;13.294;2023-03-01T16:02:23;8.50;56.10
47090;DHT22;32840;52.516;13.294;2023-03-01T16:05:25;8.50;56.40
47090;DHT22;32840;52.516;13.294;2023-03-01T16:08:10;8.40;56.60
47090;DHT22;32840;52.516;13.294;2023-03-01T16:10:54;8.40;56.90
47090;DHT22;32840;52.516;13.294;2023-03-01T16:13:39;8.30;56.80
47090;DHT22;32840;52.516;13.294;2023-03-01T16:16:24;8.40;57.10
47090;DHT22;32840;52.516;13.294;2023-03-01T16:19:09;8.40;57.40
47090;DHT22;32840;52.516;13.294;2023-03-01T16:21:54;8.30;58.20
47090;DHT22;32840;52.516;13.294;2023-03-01T16:24:39;8.30;58.50
47090;DHT22;32840;52.516;13.294;2023-03-01T16:27:26;8.20;58.50
47090;DHT22;32840;52.516;13.294;2023-03-01T16:30:13;8.20;57.90
47090;DHT22;32840;52.516;13.294;2023-03-01T16:32:58;8.20;58.10
47090;DHT22;32840;52.516;13.294;2023-03-01T16:35:43;8.20;58.80
47090;DHT22;32840;52.516;13.294;2023-03-01T16:38:29;8.10;59.20
47090;DHT22;32840;52.516;13.294;2023-03-01T16:41:17;8.00;59.40
47090;DHT22;32840;52.516;13.294;2023-03-01T16:44:02;8.00;59.80
47090;DHT22;32840;52.516;13.294;2023-03-01T16:46:48;8.00;60.00
47090;DHT22;32840;52.516;13.294;2023-03-01T16:49:34;7.90;60.00
47090;DHT22;32840;52.516;13.294;2023-03-01T16:52:19;7.90;60.30
47090;DHT22;32840;52.516;13.294;2023-03-01T16:55:08;7.80;60.90
47090;DHT22;32840;52.516;13.294;2023-03-01T16:57:54;7.80;61.20
47090;DHT22;32840;52.516;13.294;2023-03-01T17:00:38;7.70;61.20
47090;DHT22;32840;52.516;13.294;2023-03-01T17:03:26;7.70;61.90
47090;DHT22;32840;52.516;13.294;2023-03-01T17:06:14;7.70;62.30
47090;DHT22;32840;52.516;13.294;2023-03-01T17:09:02;7.60;62.60
47090;DHT22;32840;52.516;13.294;2023-03-01T17:11:49;7.60;63.30
47090;DHT22;32840;52.516;13.294;2023-03-01T17:14:34;7.60;63.60
47090;DHT22;32840;52.516;13.294;2023-03-01T17:17:19;7.60;63.80
47090;DHT22;32840;52.516;13.294;2023-03-01T17:20:04;7.50;64.30
47090;DHT22;32840;52.516;13.294;2023-03-01T17:22:49;7.50;64.70
47090;DHT22;32840;52.516;13.294;2023-03-01T17:25:41;7.50;65.20
47090;DHT22;32840;52.516;13.294;2023-03-01T17:28:28;7.40;65.50
47090;DHT22;32840;52.516;13.294;2023-03-01T17:31:14;7.40;66.00
47090;DHT22;32840;52.516;13.294;2023-03-01T17:33:59;7.40;66.40
47090;DHT22;32840;52.516;13.294;2023-03-01T17:36:45;7.40;67.10
47090;DHT22;32840;52.516;13.294;2023-03-01T17:39:31;7.40;67.30
47090;DHT22;32840;52.516;13.294;2023-03-01T17:42:19;7.40;67.70
47090;DHT22;32840;52.516;13.294;2023-03-01T17:45:05;7.40;67.90
47090;DHT22;32840;52.516;13.294;2023-03-01T17:47:50;7.40;68.60
47090;DHT22;32840;52.516;13.294;2023-03-01T17:50:36;7.30;69.10
47090;DHT22;32840;52.516;13.294;2023-03-01T17:53:22;7.20;69.30
47090;DHT22;32840;52.516;13.294;2023-03-01T17:56:08;7.20;69.80
47090;DHT22;32840;52.516;13.294;2023-03-01T17:58:54;7.20;70.20
47090;DHT22;32840;52.516;13.294;2023-03-01T18:01:42;7.10;70.60
47090;DHT22;32840;52.516;13.294;2023-03-01T18:04:28;7.10;71.10
47090;DHT22;32840;52.516;13.294;2023-03-01T18:07:14;7.00;71.80
47090;DHT22;32840;52.516;13.294;2023-03-01T18:09:59;7.00;72.60
47090;DHT22;32840;52.516;13.294;2023-03-01T18:12:44;6.90;72.70
47090;DHT22;32840;52.516;13.294;2023-03-01T18:15:30;6.80;72.90
47090;DHT22;32840;52.516;13.294;2023-03-01T18:18:18;6.80;73.40
47090;DHT22;32840;52.516;13.294;2023-03-01T18:21:04;6.80;73.60
47090;DHT22;32840;52.516;13.294;2023-03-01T18:23:48;6.80;74.00
47090;DHT22;32840;52.516;13.294;2023-03-01T18:26:33;6.80;74.40
47090;DHT22;32840;52.516;13.294;2023-03-01T18:29:19;6.80;75.00
47090;DHT22;32840;52.516;13.294;2023-03-01T18:32:07;6.80;75.20
47090;DHT22;32840;52.516;13.294;2023-03-01T18:34:52;6.80;75.50
47090;DHT22;32840;52.516;13.294;2023-03-01T18:37:37;6.70;76.10
47090;DHT22;32840;52.516;13.294;2023-03-01T18:40:22;6.70;77.10
47090;DHT22;32840;52.516;13.294;2023-03-01T18:43:07;6.70;77.20
47090;DHT22;32840;52.516;13.294;2023-03-01T18:45:57;6.70;77.80
47090;DHT22;32840;52.516;13.294;2023-03-01T18:48:42;6.70;78.00
47090;DHT22;32840;52.516;13.294;2023-03-01T18:51:30;6.70;78.50
47090;DHT22;32840;52.516;13.294;2023-03-01T18:54:16;6.60;79.10
47090;DHT22;32840;52.516;13.294;2023-03-01T18:57:02;6.60;80.10
47090;DHT22;32840;52.516;13.294;2023-03-01T18:59:51;6.50;81.00
47090;DHT22;32840;52.516;13.294;2023-03-01T19:02:36;6.50;81.30
47090;DHT22;32840;52.516;13.294;2023-03-01T19:05:21;6.40;81.70
47090;DHT22;32840;52.516;13.294;2023-03-01T19:08:06;6.30;82.10
47090;DHT22;32840;52.516;13.294;2023-03-01T19:10:59;6.30;82.40
47090;DHT22;32840;52.516;13.294;2023-03-01T19:13:46;6.30;83.20
47090;DHT22;32840;52.516;13.294;2023-03-01T19:16:31;6.20;83.80
47090;DHT22;32840;52.516;13.294;2023-03-01T19:19:16;6.20;84.60
47090;DHT22;32840;52.516;13.294;2023-03-01T19:22:01;6.20;85.30
47090;DHT22;32840;52.516;13.294;2023-03-01T19:24:47;6.20;85.70
47090;DHT22;32840;52.516;13.294;2023-03-01T19:27:33;6.10;86.50